Ferndale, MI

10:10 AM EST on December 25, 2014 (GMT -0500)
Detroit City | Change Station
CLOSE
Current Station
Airport
Location: Detroit,
Elevation: 623 ft
Nearby Weather Stations

Elev 623 ft 42.41 °N, 83.01 °W | Updated 17 minutes ago

Overcast
Overcast
40 °F
Feels Like 33 °F
N
10
Wind Variable Wind from West

Today
High -- | Low -- °F
--% Chance of Precip.
Yesterday
High -- | Low -- °F
Precip. -- in
8:00 AM 5:04 PM
Waxing Crescent, 17% visible
Pressure 29.88 in
Visibility 10.0 miles
Clouds Few 1600 ft
Mostly Cloudy 2800 ft
Overcast 3500 ft
Windchill 33 °F
Dew Point 33 °F
Humidity 77%
Rainfall 0.00 in
Snow Depth Not available.
UV 0 out of 12
Pollen .10 out of 12
Air Quality Not available.
Flu Activity Not available.
METAR KDET 251453Z 26009KT 10SM FEW016 BKN028 OVC035 04/01 A2986 RMK AO2 RAB00E09B28E52 SLP117 P0000 60000 T00440006 51044

More Conditions Fewer Conditions

Pressure 29.88 in
Visibility 10.0 miles
Clouds Few 1600 ft
Mostly Cloudy 2800 ft
Overcast 3500 ft
Windchill 33 °F
Dew Point 33 °F
Humidity 77%
Rainfall 0.00 in
Snow Depth Not available.
UV 0 out of 12
Pollen .10 out of 12
Air Quality Not available.
Flu Activity Not available.
METAR KDET 251453Z 26009KT 10SM FEW016 BKN028 OVC035 04/01 A2986 RMK AO2 RAB00E09B28E52 SLP117 P0000 60000 T00440006 51044

More Conditions Fewer Conditions

10-Day Weather Forecast

Almanac

Astronomy

Dec. 25, 2014 Rise Set
Actual Time
Civil Twilight
Nautical Twilight
Astronomical Twilight
Moon
Length of Visible Light
Length of Day
Tomorrow will be .
, % of the Moon is Illuminated

Today's Extremes

State Highs State Lows

Community

WunderPhotos

Upload Photos

1,780,298 photos uploaded!

WunderBlogs® & News

Nearby

Air Quality

  Air Quality AQ Index Pollutant
Not available.

Snow Depth

Station Depth Elevation

Earthquake Activity

City Distance Mag. Time & Date
Minimum magnitude displayed is 2.5.

Coastal Water Temperatures

Place Temperature

Nearby Weather Stations